Krakow, Poland
Current Conditions -  °F | °C
As of 12:30 AM on Sunday 26 Oct 2014 (Local Time) from EPKK Reporting Station
Haze Haze  
Wind Chill: 32°   Ceiling: Unl
Heat Index: 32°   Visibility: 3mi
Dew Point: 30°   Wind: 1mph
Humidity: 93%   Direction: 40°NE
Pressure: 30.33"   Gusts: NA
Location:  50°N, 19.99°E
Report Text: EPKK 252230Z 04001KT 5000 BR NSC M00/M01 Q1027
Loading
Personal Weather Stations






























Interactive Weather Map
Tropical Storm Tracking
New forecast layout! Learn more

10-Day Weather Forecast

Advertisements
Track Severe Weather on mobile